Terminal Aerodrome Forecast
Issued by NWS

Home | Current Version | Previous Version | Text Only | Print | Product List | Glossary On
Versions: 1 2 3 4 5 6 7 8 9 10 11 12 13 14 15 16 17 18 19 20 21
922
FTUS41 KGYX 220900 AAA
TAFRKD
TAF AMD
KRKD 220900Z 2209/2306 04007KT P6SM OVC050
     FM221300 06006KT P6SM -SN BKN025 OVC050
      TEMPO 2220/2224 4SM -SN BKN007
     FM230000 08006KT 2SM -SN BKN007 OVC015
      AMD LTD TO CLD VIS AND WIND=

USA.gov is the U.S. government's official web portal to all federal, state and local government web resources and services.